Time;durP1;ratioP1;P1;durP2;ratioP2;P2;SDS_P1;SDS_P2;PMS_P1;PMS_P2;Temp;Humidity;BMP_temperature;BMP_pressure;BME280_temperature;BME280_humidity;BME280_pressure;Samples;Min_cycle;Max_cycle;Signal;HPM_P1;HPM_P2
2021/04/24 00:00:11;;;;;;;9.70;7.53;;;23.30;47.30;;;;;;5007286;28;20040;-65
2021/04/24 00:02:39;;;;;;;10.77;7.63;;;23.30;47.40;;;;;;5010845;28;20049;-66
2021/04/24 00:05:06;;;;;;;15.95;7.25;;;23.30;47.40;;;;;;5004586;28;20038;-66
2021/04/24 00:07:31;;;;;;;9.85;7.35;;;23.30;47.50;;;;;;5005308;28;20037;-66
2021/04/24 00:09:57;;;;;;;10.50;7.45;;;23.30;47.70;;;;;;5008293;28;20033;-66
2021/04/24 00:12:23;;;;;;;8.45;6.75;;;23.30;47.60;;;;;;5008337;28;20029;-65
2021/04/24 00:14:48;;;;;;;11.55;7.05;;;23.30;47.60;;;;;;5006935;28;20030;-66
2021/04/24 00:17:14;;;;;;;8.55;6.68;;;23.20;47.50;;;;;;5006455;28;20054;-66
2021/04/24 00:19:41;;;;;;;9.90;6.80;;;23.30;47.60;;;;;;5005547;28;20033;-64
2021/04/24 00:22:06;;;;;;;9.63;6.38;;;23.30;47.60;;;;;;5006201;28;20549;-65
2021/04/24 00:24:32;;;;;;;9.00;5.80;;;23.30;47.60;;;;;;5009761;28;20050;-65
2021/04/24 00:26:58;;;;;;;9.15;6.15;;;23.30;47.50;;;;;;5006117;28;20018;-66
2021/04/24 00:29:23;;;;;;;9.27;6.10;;;23.30;47.50;;;;;;5006018;28;20037;-66
2021/04/24 00:31:49;;;;;;;9.25;6.18;;;23.30;47.50;;;;;;5006221;28;20375;-66
2021/04/24 00:34:14;;;;;;;9.02;5.80;;;23.30;47.50;;;;;;5005613;28;20038;-66
2021/04/24 00:36:40;;;;;;;7.40;5.43;;;23.30;47.60;;;;;;5010783;28;20045;-64
2021/04/24 00:39:06;;;;;;;7.75;5.60;;;23.30;47.40;;;;;;5006488;28;20110;-66
2021/04/24 00:41:31;;;;;;;8.77;5.55;;;23.30;47.50;;;;;;5005590;28;20029;-67
2021/04/24 00:43:57;;;;;;;7.53;5.15;;;23.30;47.60;;;;;;5005992;28;20026;-66
2021/04/24 00:46:23;;;;;;;8.02;5.35;;;23.30;47.60;;;;;;5006140;28;20027;-66
2021/04/24 00:48:48;;;;;;;8.77;5.32;;;23.30;47.50;;;;;;5008579;28;20026;-66
2021/04/24 00:51:14;;;;;;;9.30;5.50;;;23.30;47.40;;;;;;5008114;28;20049;-66
2021/04/24 00:53:39;;;;;;;7.85;5.15;;;23.30;47.60;;;;;;5009689;28;20481;-65
2021/04/24 00:56:05;;;;;;;8.20;4.85;;;23.30;47.70;;;;;;5008782;28;20069;-65
2021/04/24 00:58:33;;;;;;;8.35;4.68;;;23.30;47.60;;;;;;5009647;28;20399;-66
2021/04/24 01:00:58;;;;;;;7.63;4.65;;;23.30;47.50;;;;;;5011564;28;20519;-65
2021/04/24 01:03:24;;;;;;;7.95;4.70;;;23.30;47.60;;;;;;5011314;28;20062;-66
2021/04/24 01:05:50;;;;;;;8.48;4.85;;;23.30;47.50;;;;;;5009939;28;20486;-66
2021/04/24 01:08:15;;;;;;;8.65;4.80;;;23.30;47.50;;;;;;5008830;28;20034;-66
2021/04/24 01:10:43;;;;;;;7.38;4.60;;;23.30;47.50;;;;;;5008676;28;20060;-66
2021/04/24 01:13:09;;;;;;;10.73;5.10;;;23.30;47.60;;;;;;5009779;28;20117;-62
2021/04/24 01:15:35;;;;;;;9.88;5.45;;;23.30;47.00;;;;;;5013259;28;20124;-65
2021/04/24 01:18:01;;;;;;;12.45;4.65;;;23.20;44.90;;;;;;5009329;28;20101;-66
2021/04/24 01:20:26;;;;;;;10.48;4.63;;;23.10;46.20;;;;;;5009222;28;20040;-66
2021/04/24 01:22:52;;;;;;;10.73;4.10;;;23.10;46.70;;;;;;5008663;28;20053;-66
2021/04/24 01:25:20;;;;;;;8.23;4.35;;;23.00;46.90;;;;;;5008536;28;20089;-66
2021/04/24 01:27:47;;;;;;;7.82;4.05;;;23.00;47.10;;;;;;5012770;28;20080;-66
2021/04/24 01:30:13;;;;;;;7.65;3.92;;;23.10;47.20;;;;;;5010228;28;20030;-65
2021/04/24 01:32:39;;;;;;;6.30;3.92;;;23.10;47.30;;;;;;5008103;28;20029;-65
2021/04/24 01:35:09;;;;;;;11.82;4.10;;;23.10;47.30;;;;;;5008781;28;20401;-65
2021/04/24 01:37:35;;;;;;;7.88;3.70;;;23.10;47.30;;;;;;5008621;28;20046;-65
2021/04/24 01:40:00;;;;;;;8.88;4.25;;;23.10;47.40;;;;;;5009865;28;20080;-66
2021/04/24 01:42:26;;;;;;;7.57;3.30;;;23.10;47.30;;;;;;5011474;28;20104;-65
2021/04/24 01:44:52;;;;;;;8.30;3.60;;;23.10;47.40;;;;;;5009479;28;20026;-65
2021/04/24 01:47:17;;;;;;;9.52;4.05;;;23.10;47.40;;;;;;5006738;28;20029;-66
2021/04/24 01:49:43;;;;;;;7.13;3.70;;;23.10;47.40;;;;;;5008451;28;20060;-66
2021/04/24 01:52:09;;;;;;;9.77;3.55;;;23.10;47.50;;;;;;5008949;28;20023;-66
2021/04/24 01:54:34;;;;;;;8.43;3.50;;;23.10;47.50;;;;;;5011669;28;20087;-66
2021/04/24 01:57:00;;;;;;;8.07;3.47;;;23.10;47.50;;;;;;5009154;28;20095;-65
2021/04/24 01:59:28;;;;;;;9.98;3.80;;;23.10;47.50;;;;;;5008476;28;20161;-65
2021/04/24 02:01:54;;;;;;;8.48;3.70;;;23.20;47.50;;;;;;5007646;28;20067;-66
2021/04/24 02:04:21;;;;;;;8.68;3.33;;;23.10;47.50;;;;;;5008563;28;20039;-65
2021/04/24 02:06:47;;;;;;;9.23;3.60;;;23.10;47.60;;;;;;5011681;28;20017;-66
2021/04/24 02:09:13;;;;;;;8.52;3.60;;;23.10;47.60;;;;;;5008454;28;20038;-65
2021/04/24 02:11:58;;;;;;;6.28;3.00;;;23.10;47.60;;;;;;5008310;28;20392;-65
2021/04/24 02:14:24;;;;;;;8.30;3.35;;;23.10;47.60;;;;;;5007975;28;20041;-66
2021/04/24 02:16:49;;;;;;;6.80;3.38;;;23.10;47.60;;;;;;5007315;28;20071;-65
2021/04/24 02:19:15;;;;;;;7.10;3.50;;;23.10;47.70;;;;;;5008053;28;20018;-65
2021/04/24 02:21:41;;;;;;;6.28;3.33;;;23.10;47.60;;;;;;5012243;28;20071;-66
2021/04/24 02:24:07;;;;;;;5.65;3.22;;;23.10;47.60;;;;;;5007767;28;20050;-65
2021/04/24 02:26:32;;;;;;;6.15;3.42;;;23.10;47.60;;;;;;5007774;28;20037;-65
2021/04/24 02:28:58;;;;;;;6.65;3.22;;;23.10;47.60;;;;;;5007790;28;20022;-65
2021/04/24 02:31:24;;;;;;;5.43;3.25;;;23.10;47.60;;;;;;5007078;28;20030;-66
2021/04/24 02:33:50;;;;;;;6.57;3.00;;;23.20;47.70;;;;;;5011003;28;20072;-66
2021/04/24 02:36:15;;;;;;;5.68;2.97;;;23.10;47.60;;;;;;5008971;28;20030;-65
2021/04/24 02:38:49;;;;;;;6.20;3.05;;;23.10;47.60;;;;;;5007275;28;20025;-66
2021/04/24 02:41:15;;;;;;;5.63;3.08;;;23.10;47.60;;;;;;5006521;28;20394;-65
2021/04/24 02:43:41;;;;;;;10.80;3.15;;;23.10;47.60;;;;;;5007544;28;20026;-65
2021/04/24 02:46:08;;;;;;;6.38;3.17;;;23.10;47.80;;;;;;5007956;28;20034;-65
2021/04/24 02:48:33;;;;;;;10.18;2.75;;;23.10;48.00;;;;;;5010738;28;20045;-66
2021/04/24 02:50:59;;;;;;;6.45;3.35;;;23.20;48.00;;;;;;5008310;28;20022;-66
2021/04/24 02:53:24;;;;;;;6.57;2.75;;;23.10;48.00;;;;;;5011028;28;20407;-66
2021/04/24 02:55:50;;;;;;;9.35;3.28;;;23.10;47.90;;;;;;5007390;28;20037;-66
2021/04/24 02:58:16;;;;;;;5.25;2.85;;;23.10;47.90;;;;;;5007399;28;20390;-66
2021/04/24 03:00:42;;;;;;;6.40;3.30;;;23.10;47.80;;;;;;5010977;28;20030;-65
2021/04/24 03:03:09;;;;;;;7.40;3.10;;;23.10;47.80;;;;;;5007749;28;20434;-65
2021/04/24 03:05:35;;;;;;;6.53;3.00;;;23.20;47.90;;;;;;5007277;28;20083;-66
2021/04/24 03:08:01;;;;;;;6.35;3.03;;;23.10;47.80;;;;;;5006924;28;20018;-64
2021/04/24 03:10:28;;;;;;;5.97;2.95;;;23.20;47.80;;;;;;5006654;28;20109;-66
2021/04/24 03:12:53;;;;;;;5.90;3.08;;;23.10;47.90;;;;;;5009932;28;20022;-66
2021/04/24 03:15:19;;;;;;;6.93;3.17;;;23.20;47.80;;;;;;5008529;28;20121;-65
2021/04/24 03:17:45;;;;;;;5.63;2.88;;;23.20;47.90;;;;;;5006545;28;20054;-65
2021/04/24 03:20:11;;;;;;;7.05;2.92;;;23.20;47.90;;;;;;5006975;28;20030;-65
2021/04/24 03:22:37;;;;;;;6.43;2.97;;;23.20;47.90;;;;;;5007024;28;20022;-65
2021/04/24 03:25:04;;;;;;;5.50;2.60;;;23.20;47.90;;;;;;5007759;28;20054;-65
2021/04/24 03:27:29;;;;;;;5.65;2.80;;;23.20;47.90;;;;;;5010050;28;20076;-65
2021/04/24 03:29:55;;;;;;;7.05;2.85;;;23.10;47.90;;;;;;5007347;28;20026;-64
2021/04/24 03:32:21;;;;;;;7.72;2.90;;;23.20;47.80;;;;;;5005866;28;20440;-66
2021/04/24 03:34:46;;;;;;;8.13;3.00;;;23.10;47.90;;;;;;5006786;28;20490;-66
2021/04/24 03:37:12;;;;;;;5.25;2.55;;;23.10;48.00;;;;;;5007017;28;20030;-66
2021/04/24 03:39:37;;;;;;;7.35;3.60;;;23.10;47.90;;;;;;5010440;28;20037;-66
2021/04/24 03:42:03;;;;;;;6.03;3.00;;;23.10;47.90;;;;;;5007476;28;20026;-66
2021/04/24 03:44:29;;;;;;;5.85;3.28;;;23.10;48.00;;;;;;5006653;28;20030;-67
2021/04/24 03:46:54;;;;;;;5.40;3.08;;;23.10;48.00;;;;;;5005812;28;20505;-66
2021/04/24 03:49:20;;;;;;;6.70;3.20;;;23.10;48.00;;;;;;5006386;28;20506;-66
2021/04/24 03:51:46;;;;;;;6.95;3.00;;;23.10;47.90;;;;;;5010500;28;20481;-65
2021/04/24 03:54:11;;;;;;;6.18;2.97;;;23.10;48.00;;;;;;5007099;28;20038;-65
2021/04/24 03:56:37;;;;;;;5.80;3.05;;;23.10;48.00;;;;;;5006754;28;20568;-66
2021/04/24 03:59:03;;;;;;;6.40;3.25;;;23.10;47.90;;;;;;5006669;28;20065;-65
2021/04/24 04:01:28;;;;;;;6.93;3.30;;;23.10;47.90;;;;;;5005399;28;20046;-65
2021/04/24 04:03:54;;;;;;;7.43;3.13;;;23.10;47.90;;;;;;5009264;28;20383;-66
2021/04/24 04:06:20;;;;;;;9.07;3.40;;;23.10;47.90;;;;;;5008683;28;20494;-65
2021/04/24 04:08:45;;;;;;;5.55;2.70;;;23.10;48.00;;;;;;5006095;28;20034;-66
2021/04/24 04:11:11;;;;;;;5.20;2.97;;;23.10;48.00;;;;;;5006538;28;20407;-66
2021/04/24 04:13:37;;;;;;;6.20;2.92;;;23.10;48.00;;;;;;5006365;28;20084;-65
2021/04/24 04:16:02;;;;;;;6.68;3.38;;;23.10;48.00;;;;;;5007021;28;20030;-65
2021/04/24 04:18:32;;;;;;;5.53;2.67;;;23.10;48.00;;;;;;5009361;28;20052;-65
2021/04/24 04:20:57;;;;;;;5.13;2.88;;;23.10;48.00;;;;;;5007074;28;20038;-66
2021/04/24 04:23:23;;;;;;;6.20;2.97;;;23.10;48.00;;;;;;5005493;28;20569;-66
2021/04/24 04:25:50;;;;;;;8.05;3.50;;;23.00;47.90;;;;;;5006258;28;20093;-66
2021/04/24 04:28:16;;;;;;;7.03;3.22;;;23.00;47.90;;;;;;5010152;28;20045;-66
2021/04/24 04:30:42;;;;;;;6.00;2.88;;;23.10;47.90;;;;;;5013294;28;20022;-66
2021/04/24 04:33:08;;;;;;;7.10;3.50;;;23.10;48.00;;;;;;5010826;28;20018;-66
2021/04/24 04:35:34;;;;;;;6.68;3.35;;;23.00;48.00;;;;;;5010144;28;20073;-65
2021/04/24 04:37:59;;;;;;;7.88;3.30;;;23.00;48.00;;;;;;5009161;28;20018;-66
2021/04/24 04:40:25;;;;;;;6.45;3.15;;;23.00;48.00;;;;;;5009949;28;20042;-65
2021/04/24 04:42:51;;;;;;;5.95;3.20;;;23.00;48.00;;;;;;5012992;28;20026;-66
2021/04/24 04:45:17;;;;;;;7.18;3.25;;;23.10;48.00;;;;;;5010485;28;20026;-65
2021/04/24 04:47:43;;;;;;;7.25;3.17;;;23.00;48.00;;;;;;5013764;28;20026;-66
2021/04/24 04:50:11;;;;;;;5.43;2.97;;;23.00;48.00;;;;;;5009608;28;20026;-66
2021/04/24 04:52:36;;;;;;;8.10;3.40;;;23.00;48.20;;;;;;5008997;28;20115;-66
2021/04/24 04:55:04;;;;;;;7.20;3.20;;;23.00;48.10;;;;;;5011237;28;20093;-65
2021/04/24 04:57:29;;;;;;;7.63;3.20;;;23.00;48.10;;;;;;5012760;28;20025;-66
2021/04/24 04:59:55;;;;;;;6.40;3.45;;;23.00;48.10;;;;;;5009229;28;20025;-64
2021/04/24 05:02:21;;;;;;;6.47;3.25;;;23.00;48.10;;;;;;5009539;28;20425;-65
2021/04/24 05:04:46;;;;;;;8.02;3.10;;;23.10;48.20;;;;;;5009576;28;20060;-66
2021/04/24 05:07:12;;;;;;;5.85;3.00;;;23.00;48.10;;;;;;5009045;28;20116;-66
2021/04/24 05:09:38;;;;;;;6.10;3.10;;;23.00;48.10;;;;;;5013497;28;20038;-66
2021/04/24 05:12:04;;;;;;;7.95;3.70;;;23.00;48.10;;;;;;5009927;28;20113;-65
2021/04/24 05:14:30;;;;;;;5.45;2.85;;;23.00;48.00;;;;;;5006887;28;20042;-66
2021/04/24 05:16:56;;;;;;;5.65;3.10;;;23.00;48.20;;;;;;5009249;28;20032;-66
2021/04/24 05:19:21;;;;;;;6.05;3.38;;;23.00;48.20;;;;;;5009383;28;20073;-66
2021/04/24 05:21:47;;;;;;;8.05;3.28;;;23.00;48.10;;;;;;5012111;28;20120;-65
2021/04/24 05:24:13;;;;;;;8.40;3.45;;;23.10;48.10;;;;;;5010154;28;20418;-65
2021/04/24 05:26:39;;;;;;;6.55;3.30;;;23.00;48.20;;;;;;5008820;28;20149;-66
2021/04/24 05:29:04;;;;;;;6.57;3.38;;;23.00;48.20;;;;;;5007706;28;20481;-66
2021/04/24 05:31:30;;;;;;;7.03;3.40;;;23.00;48.10;;;;;;5009190;28;20030;-66
2021/04/24 05:33:57;;;;;;;6.05;3.05;;;23.00;48.00;;;;;;5011259;28;20030;-66
2021/04/24 05:36:23;;;;;;;5.85;3.40;;;23.00;48.00;;;;;;5010525;28;20565;-65
2021/04/24 05:38:49;;;;;;;6.85;3.28;;;23.00;48.00;;;;;;5009022;28;20037;-65
2021/04/24 05:41:20;;;;;;;7.38;3.58;;;23.00;48.00;;;;;;5008895;28;20029;-66
2021/04/24 05:43:46;;;;;;;6.72;3.33;;;23.00;47.90;;;;;;5007461;28;20920;-66
2021/04/24 05:46:11;;;;;;;6.57;3.65;;;23.00;48.00;;;;;;5009235;28;20051;-66
2021/04/24 05:48:37;;;;;;;6.63;3.05;;;23.10;48.00;;;;;;5012659;28;20034;-65
2021/04/24 05:51:03;;;;;;;6.50;3.00;;;23.00;48.00;;;;;;5008493;28;20065;-66
2021/04/24 05:53:28;;;;;;;6.22;3.03;;;23.00;48.00;;;;;;5008623;28;20437;-66
2021/04/24 05:55:54;;;;;;;6.30;3.47;;;23.00;48.00;;;;;;5008318;28;20026;-67
2021/04/24 05:58:20;;;;;;;7.43;3.55;;;23.00;48.00;;;;;;5007493;28;20030;-67
2021/04/24 06:00:45;;;;;;;6.72;3.70;;;23.00;48.20;;;;;;5012381;28;20041;-65
2021/04/24 06:03:11;;;;;;;7.25;3.25;;;23.10;48.30;;;;;;5009459;28;20395;-66
2021/04/24 06:05:37;;;;;;;5.25;3.20;;;23.10;48.40;;;;;;5008426;28;20033;-65
2021/04/24 06:08:03;;;;;;;6.43;3.38;;;23.10;48.30;;;;;;5007778;28;20034;-65
2021/04/24 06:10:28;;;;;;;5.80;3.30;;;23.10;48.30;;;;;;5007962;28;20034;-66
2021/04/24 06:12:54;;;;;;;6.38;3.13;;;23.10;48.30;;;;;;5010620;28;20445;-66
2021/04/24 06:15:20;;;;;;;5.93;3.40;;;23.10;48.30;;;;;;5009339;28;20172;-66
2021/04/24 06:17:46;;;;;;;7.05;3.60;;;23.10;48.40;;;;;;5008589;28;20063;-66
2021/04/24 06:20:12;;;;;;;7.65;3.95;;;23.10;48.30;;;;;;5008188;28;20026;-67
2021/04/24 06:22:38;;;;;;;6.68;3.70;;;23.20;48.30;;;;;;5007241;28;20022;-65
2021/04/24 06:25:08;;;;;;;7.32;3.70;;;23.20;48.30;;;;;;5009404;28;20047;-66
2021/04/24 06:27:34;;;;;;;6.03;3.30;;;23.20;48.30;;;;;;5011363;28;20041;-66
2021/04/24 06:29:59;;;;;;;6.80;3.60;;;23.20;48.30;;;;;;5007628;28;20025;-66
2021/04/24 06:32:25;;;;;;;7.47;3.28;;;23.20;48.30;;;;;;5007763;28;20040;-66
2021/04/24 06:34:51;;;;;;;6.45;3.50;;;23.20;48.20;;;;;;5007834;28;20030;-66
2021/04/24 06:37:16;;;;;;;7.80;3.17;;;23.30;48.10;;;;;;5006999;28;20026;-66
2021/04/24 06:39:42;;;;;;;6.47;3.38;;;23.30;48.00;;;;;;5012180;28;20080;-66
2021/04/24 06:42:08;;;;;;;8.02;3.30;;;23.30;47.90;;;;;;5008160;28;20029;-66
2021/04/24 06:44:33;;;;;;;6.25;3.75;;;23.30;47.90;;;;;;5006633;28;20042;-66
2021/04/24 06:46:59;;;;;;;5.80;3.15;;;23.30;47.90;;;;;;5007193;28;20030;-66
2021/04/24 06:49:24;;;;;;;6.20;3.40;;;23.30;47.80;;;;;;5006555;28;20038;-65
2021/04/24 06:51:50;;;;;;;10.10;5.15;;;23.40;47.70;;;;;;5009890;28;20036;-72
2021/04/24 06:54:16;;;;;;;8.48;4.40;;;23.40;47.30;;;;;;5008975;28;20041;-66
2021/04/24 06:56:41;;;;;;;6.85;3.88;;;23.30;47.60;;;;;;5007353;28;20494;-65
2021/04/24 06:59:07;;;;;;;6.38;3.88;;;23.40;47.90;;;;;;5006175;28;20413;-67
2021/04/24 07:01:33;;;;;;;8.02;4.20;;;23.40;48.00;;;;;;5007251;28;20080;-67
2021/04/24 07:03:59;;;;;;;6.28;3.47;;;23.40;48.00;;;;;;5008386;28;20025;-67
2021/04/24 07:06:24;;;;;;;8.43;3.85;;;23.50;48.40;;;;;;5008453;28;20019;-65
2021/04/24 07:08:50;;;;;;;6.82;3.78;;;23.70;48.20;;;;;;5007550;28;20083;-67
2021/04/24 07:11:15;;;;;;;8.68;3.53;;;23.90;48.00;;;;;;5007163;28;20030;-68
2021/04/24 07:13:41;;;;;;;7.13;3.30;;;23.90;48.00;;;;;;5006282;28;20523;-67
2021/04/24 07:16:10;;;;;;;6.57;3.58;;;23.90;47.80;;;;;;5008064;28;20494;-64
2021/04/24 07:18:36;;;;;;;7.28;3.55;;;24.00;47.70;;;;;;5010696;28;20026;-67
2021/04/24 07:21:03;;;;;;;8.07;3.72;;;24.10;47.60;;;;;;5006962;28;20029;-68
2021/04/24 07:23:29;;;;;;;6.88;3.42;;;24.10;47.60;;;;;;5006943;28;20048;-64
2021/04/24 07:25:54;;;;;;;7.03;3.75;;;24.20;47.50;;;;;;5006568;28;20022;-66
2021/04/24 07:28:20;;;;;;;7.45;3.67;;;24.20;47.50;;;;;;5006372;28;20407;-65
2021/04/24 07:30:47;;;;;;;7.22;3.72;;;24.20;47.40;;;;;;5010464;28;20056;-67
2021/04/24 07:33:12;;;;;;;6.38;3.88;;;24.30;47.40;;;;;;5022921;28;20030;-67
2021/04/24 07:35:38;;;;;;;6.55;3.90;;;24.30;47.30;;;;;;5006445;28;20041;-66
2021/04/24 07:38:04;;;;;;;7.32;3.30;;;24.40;47.40;;;;;;5006714;28;20054;-67
2021/04/24 07:40:29;;;;;;;6.70;3.78;;;24.30;47.30;;;;;;5006495;28;20068;-64
2021/04/24 07:42:55;;;;;;;5.70;3.45;;;24.30;47.20;;;;;;5008800;28;20029;-64
2021/04/24 07:45:21;;;;;;;5.72;3.75;;;24.40;47.10;;;;;;5008769;28;20482;-70
2021/04/24 07:47:48;;;;;;;7.00;3.80;;;24.40;47.20;;;;;;5007333;28;20026;-68
2021/04/24 07:50:17;;;;;;;7.43;3.55;;;24.40;47.00;;;;;;5005687;28;20026;-74
2021/04/24 07:52:42;;;;;;;6.50;3.58;;;24.40;47.10;;;;;;5006604;28;20030;-64
2021/04/24 07:55:08;;;;;;;8.38;3.65;;;24.40;47.20;;;;;;5007132;28;20041;-66
2021/04/24 07:57:34;;;;;;;6.57;3.30;;;24.40;47.40;;;;;;5009676;28;20057;-65
2021/04/24 08:00:00;;;;;;;6.93;3.67;;;24.50;47.30;;;;;;5007540;28;20026;-70
2021/04/24 08:02:25;;;;;;;6.28;3.60;;;24.50;47.20;;;;;;5010460;28;20029;-66
2021/04/24 08:04:51;;;;;;;6.32;3.58;;;24.50;47.40;;;;;;5010029;28;20053;-66
2021/04/24 08:07:16;;;;;;;7.10;3.22;;;24.60;47.20;;;;;;5010532;28;20073;-65
2021/04/24 08:09:42;;;;;;;6.32;3.53;;;24.60;47.00;;;;;;5014435;28;20117;-67
2021/04/24 08:12:08;;;;;;;8.77;2.92;;;24.70;47.00;;;;;;5010567;28;20025;-67
2021/04/24 08:14:34;;;;;;;8.32;3.55;;;24.70;47.10;;;;;;5010357;28;20050;-66
2021/04/24 08:16:59;;;;;;;8.07;3.38;;;24.80;47.20;;;;;;5010427;28;20029;-66
2021/04/24 08:19:25;;;;;;;21.48;3.92;;;24.80;47.40;;;;;;5009598;28;20034;-75
2021/04/24 08:21:53;;;;;;;15.32;4.15;;;24.80;47.40;;;;;;5013493;28;20120;-73
2021/04/24 08:24:19;;;;;;;8.80;3.63;;;24.80;47.20;;;;;;5012061;28;20100;-65
2021/04/24 08:26:44;;;;;;;13.55;3.55;;;24.90;47.10;;;;;;5009868;28;20041;-69
2021/04/24 08:29:10;;;;;;;16.45;3.80;;;24.90;46.90;;;;;;5009890;28;20065;-66
2021/04/24 08:31:36;;;;;;;10.73;3.60;;;25.00;46.60;;;;;;5010169;28;20056;-66
2021/04/24 08:34:02;;;;;;;12.75;3.55;;;25.00;46.70;;;;;;5011254;28;20025;-66
2021/04/24 08:36:28;;;;;;;14.63;3.75;;;25.00;46.60;;;;;;5012600;28;20057;-66
2021/04/24 08:38:54;;;;;;;16.20;3.90;;;25.00;46.50;;;;;;5010776;28;20104;-65
2021/04/24 08:41:19;;;;;;;10.10;3.60;;;25.00;46.50;;;;;;5009107;28;20030;-66
2021/04/24 08:43:45;;;;;;;7.95;3.67;;;24.90;46.50;;;;;;5008770;28;20025;-66
2021/04/24 08:46:11;;;;;;;9.48;3.63;;;24.90;46.50;;;;;;5010384;28;20096;-67
2021/04/24 08:48:36;;;;;;;8.48;3.60;;;25.00;46.50;;;;;;5011860;28;20481;-66
2021/04/24 08:51:02;;;;;;;12.40;3.58;;;24.90;46.50;;;;;;5013072;28;20022;-66
2021/04/24 08:53:28;;;;;;;8.15;3.38;;;25.00;46.50;;;;;;5009898;28;20077;-66
2021/04/24 08:55:53;;;;;;;8.45;3.50;;;24.90;46.50;;;;;;5008826;28;20037;-63
2021/04/24 08:58:20;;;;;;;11.10;4.05;;;24.90;46.50;;;;;;5009729;28;20049;-64
2021/04/24 09:00:49;;;;;;;11.82;4.97;;;24.90;46.40;;;;;;5013474;28;20066;-64
2021/04/24 09:03:19;;;;;;;8.20;5.03;;;24.90;44.60;;;;;;5025639;28;20065;-64
2021/04/24 09:05:45;;;;;;;9.52;4.75;;;24.80;45.10;;;;;;5013341;28;20386;-64
2021/04/24 09:08:11;;;;;;;12.80;4.50;;;24.60;45.50;;;;;;5009449;28;20022;-64
2021/04/24 09:10:44;;;;;;;10.05;4.95;;;24.50;45.90;;;;;;5008748;28;20061;-64
2021/04/24 09:13:10;;;;;;;8.82;4.72;;;24.30;46.10;;;;;;5009211;28;20022;-64
2021/04/24 09:15:36;;;;;;;7.75;4.25;;;24.20;46.30;;;;;;5013273;28;20074;-65
2021/04/24 09:18:06;;;;;;;7.20;4.60;;;24.10;46.50;;;;;;5009512;28;20026;-64
2021/04/24 09:20:33;;;;;;;7.05;4.40;;;24.10;46.60;;;;;;5008876;28;20030;-64
2021/04/24 09:23:04;;;;;;;9.52;4.78;;;24.10;46.70;;;;;;5009150;28;20044;-65
2021/04/24 09:25:49;;;;;;;13.45;5.20;;;24.00;46.70;;;;;;5008567;28;20030;-64
2021/04/24 09:28:31;;;;;;;9.18;4.10;;;23.90;46.70;;;;;;5009225;28;20044;-64
2021/04/24 09:31:00;;;;;;;9.70;4.57;;;23.90;46.80;;;;;;5011317;28;20030;-64
2021/04/24 09:33:33;;;;;;;8.38;4.40;;;23.90;46.90;;;;;;5010840;28;20042;-64
2021/04/24 09:35:58;;;;;;;8.35;4.07;;;23.90;46.90;;;;;;5012214;28;20046;-64
2021/04/24 09:38:29;;;;;;;7.90;4.35;;;23.90;46.90;;;;;;5008812;28;20030;-64
2021/04/24 09:41:14;;;;;;;7.20;4.70;;;23.90;46.90;;;;;;5008076;28;20065;-64
2021/04/24 09:44:00;;;;;;;9.55;4.80;;;23.80;46.60;;;;;;5008871;28;20129;-65
2021/04/24 09:46:44;;;;;;;14.95;7.28;;;23.80;46.50;;;;;;5008808;28;20039;-64
2021/04/24 09:49:12;;;;;;;17.35;8.95;;;23.70;44.20;;;;;;5008045;28;20085;-61
2021/04/24 09:51:45;;;;;;;21.20;9.90;;;23.60;43.00;;;;;;5027926;28;20022;-69
